Time;durP1;ratioP1;P1;durP2;ratioP2;P2;SDS_P1;SDS_P2;PMS_P1;PMS_P2;Temp;Humidity;BMP_temperature;BMP_pressure;BME280_temperature;BME280_humidity;BME280_pressure;Samples;Min_cycle;Max_cycle;Signal;HPM_P1;HPM_P2
2021/11/02 00:00:00;;;;;;;10.85;5.28;;;7.50;99.90;;;;;;4998059;28;20041;-86
2021/11/02 00:02:26;;;;;;;13.35;4.88;;;7.50;99.90;;;;;;4995491;28;20508;-87
2021/11/02 00:04:52;;;;;;;10.00;4.47;;;7.50;99.90;;;;;;4995451;28;20076;-84
2021/11/02 00:07:18;;;;;;;11.52;5.05;;;7.50;99.90;;;;;;4963623;28;20037;-88
2021/11/02 00:09:46;;;;;;;8.70;5.00;;;7.50;99.90;;;;;;4960158;28;20446;-87
2021/11/02 00:12:17;;;;;;;9.40;4.82;;;7.50;99.90;;;;;;4998561;28;20280;-86
2021/11/02 00:14:43;;;;;;;10.68;4.75;;;7.50;99.90;;;;;;4960215;28;20576;-85
2021/11/02 00:17:23;;;;;;;10.65;5.53;;;7.50;99.90;;;;;;4959128;28;20060;-86
2021/11/02 00:19:53;;;;;;;7.07;4.40;;;7.50;99.90;;;;;;4988228;28;20562;-85
2021/11/02 00:22:21;;;;;;;12.65;5.38;;;7.50;99.90;;;;;;4978185;28;20037;-86
2021/11/02 00:27:19;;;;;;;12.20;4.68;;;7.50;99.90;;;;;;4993279;28;20034;-84
2021/11/02 00:29:45;;;;;;;9.57;5.20;;;7.40;99.90;;;;;;4975701;28;20636;-86
2021/11/02 00:32:12;;;;;;;10.43;5.72;;;7.40;99.90;;;;;;4958727;28;20041;-85
2021/11/02 00:34:38;;;;;;;9.27;5.00;;;7.30;99.90;;;;;;4974220;28;20126;-85
2021/11/02 00:37:04;;;;;;;10.10;5.45;;;7.30;99.90;;;;;;4976833;28;20617;-86
2021/11/02 00:39:29;;;;;;;6.95;5.28;;;7.30;99.90;;;;;;4965629;28;20045;-86
2021/11/02 00:41:55;;;;;;;12.57;5.65;;;7.20;99.90;;;;;;4985421;28;20046;-85
2021/11/02 00:44:22;;;;;;;11.10;5.75;;;7.20;99.90;;;;;;4959252;28;20049;-85
2021/11/02 00:46:50;;;;;;;14.52;5.70;;;7.20;99.90;;;;;;4973658;28;20053;-86
2021/11/02 00:49:18;;;;;;;10.98;5.55;;;7.10;99.90;;;;;;4958089;28;20069;-86
2021/11/02 00:51:48;;;;;;;8.30;5.78;;;7.00;99.90;;;;;;4985792;28;20037;-87
2021/11/02 00:54:15;;;;;;;11.30;6.15;;;7.00;99.90;;;;;;4991911;28;20028;-85
2021/11/02 00:56:42;;;;;;;16.35;6.15;;;7.00;99.90;;;;;;4978292;28;20079;-85
2021/11/02 00:59:08;;;;;;;13.00;6.40;;;6.90;99.90;;;;;;4993515;28;20048;-84
2021/11/02 01:01:34;;;;;;;11.55;6.40;;;7.00;99.90;;;;;;4979517;28;20649;-86
2021/11/02 01:04:04;;;;;;;13.32;6.90;;;7.00;99.90;;;;;;4975951;28;20053;-87
2021/11/02 01:06:32;;;;;;;10.73;7.10;;;7.00;99.90;;;;;;4978290;28;20075;-87
2021/11/02 01:08:59;;;;;;;14.13;7.32;;;7.00;99.90;;;;;;4956063;28;20129;-84
2021/11/02 01:11:25;;;;;;;15.10;6.88;;;7.00;99.90;;;;;;4947965;28;20736;-85
2021/11/02 01:13:53;;;;;;;10.18;6.38;;;7.00;99.90;;;;;;5007263;28;20150;-85
2021/11/02 01:16:21;;;;;;;11.10;6.15;;;7.00;99.90;;;;;;4973333;28;20667;-85
2021/11/02 01:18:47;;;;;;;22.33;7.70;;;7.00;99.90;;;;;;4988525;28;20037;-86
2021/11/02 01:21:14;;;;;;;13.23;6.70;;;7.00;99.90;;;;;;4989226;28;20045;-87
2021/11/02 01:23:39;;;;;;;11.25;6.50;;;7.00;99.90;;;;;;4975767;28;20047;-86
2021/11/02 01:26:05;;;;;;;14.82;6.85;;;7.00;99.90;;;;;;4989859;28;20041;-85
2021/11/02 01:28:31;;;;;;;10.45;6.25;;;7.00;99.90;;;;;;4959984;28;20119;-86
2021/11/02 01:30:57;;;;;;;18.00;6.40;;;7.00;99.90;;;;;;4974414;28;20041;-85
2021/11/02 01:33:22;;;;;;;8.85;6.32;;;6.90;99.90;;;;;;4956034;28;20086;-85
2021/11/02 01:35:48;;;;;;;16.63;6.28;;;6.90;99.90;;;;;;4978686;28;20167;-86
2021/11/02 01:38:14;;;;;;;14.23;6.75;;;6.90;99.90;;;;;;4956815;28;20025;-86
2021/11/02 01:40:40;;;;;;;12.30;6.13;;;6.90;99.90;;;;;;4989327;28;20045;-85
2021/11/02 01:43:06;;;;;;;11.43;6.80;;;6.90;99.90;;;;;;4977328;28;20115;-86
2021/11/02 01:45:32;;;;;;;11.63;6.25;;;6.90;99.90;;;;;;4990443;28;20041;-86
2021/11/02 01:47:58;;;;;;;15.98;6.30;;;6.80;99.90;;;;;;4958595;28;20133;-86
2021/11/02 01:50:24;;;;;;;15.13;6.53;;;6.80;99.90;;;;;;4980406;28;20071;-85
2021/11/02 01:52:50;;;;;;;13.32;6.68;;;6.80;99.90;;;;;;4974849;28;20634;-86
2021/11/02 01:55:17;;;;;;;14.43;6.63;;;6.80;99.90;;;;;;4978817;28;20045;-86
2021/11/02 01:57:46;;;;;;;18.00;7.10;;;6.80;99.90;;;;;;5002633;28;20037;-85
2021/11/02 02:00:15;;;;;;;13.48;6.70;;;6.80;99.90;;;;;;4984481;28;20476;-86
2021/11/02 02:03:02;;;;;;;13.13;6.78;;;6.80;99.90;;;;;;4997025;28;20045;-85
2021/11/02 02:05:46;;;;;;;12.25;6.32;;;6.80;99.90;;;;;;4987795;28;20045;-87
2021/11/02 02:08:54;;;;;;;12.02;6.70;;;6.80;99.90;;;;;;5011984;28;21427;-86
2021/11/02 02:11:53;;;;;;;17.27;6.78;;;6.80;99.90;;;;;;4991394;28;20111;-86
2021/11/02 02:14:40;;;;;;;16.35;6.63;;;6.80;99.90;;;;;;4972184;28;20069;-86
2021/11/02 02:17:18;;;;;;;13.13;6.22;;;6.80;99.90;;;;;;4996416;28;20227;-84
2021/11/02 02:19:58;;;;;;;18.75;7.05;;;6.80;99.90;;;;;;4977036;28;20641;-86
2021/11/02 02:22:43;;;;;;;11.52;6.40;;;6.80;99.90;;;;;;4972054;28;20416;-86
2021/11/02 02:25:37;;;;;;;13.85;6.50;;;6.80;99.90;;;;;;5001955;28;20051;-85
2021/11/02 02:28:19;;;;;;;13.02;6.68;;;6.80;99.90;;;;;;4975044;28;20397;-86
2021/11/02 02:30:52;;;;;;;13.50;6.35;;;6.80;99.90;;;;;;4979212;28;20030;-85
2021/11/02 02:33:22;;;;;;;13.90;6.78;;;6.80;99.90;;;;;;4976547;28;20044;-86
2021/11/02 02:35:49;;;;;;;10.43;6.28;;;6.80;99.90;;;;;;4975489;28;21056;-84
2021/11/02 02:38:18;;;;;;;12.43;5.75;;;6.80;99.90;;;;;;4991791;28;20037;-86
2021/11/02 02:40:47;;;;;;;14.15;7.05;;;6.70;99.90;;;;;;4996649;28;20045;-85
2021/11/02 02:43:14;;;;;;;12.77;6.60;;;6.60;99.90;;;;;;4960133;28;20049;-86
2021/11/02 02:45:40;;;;;;;13.02;6.78;;;6.60;99.90;;;;;;4981668;28;20590;-85
2021/11/02 02:48:08;;;;;;;12.20;6.57;;;6.50;99.90;;;;;;4976884;28;20049;-85
2021/11/02 02:50:35;;;;;;;13.82;7.25;;;6.50;99.90;;;;;;4976543;28;20037;-86
2021/11/02 02:53:03;;;;;;;13.55;7.70;;;6.50;99.90;;;;;;4994008;28;20045;-85
2021/11/02 02:55:32;;;;;;;13.95;7.80;;;6.40;99.90;;;;;;4996583;28;22021;-86
2021/11/02 02:58:00;;;;;;;16.77;8.25;;;6.40;99.90;;;;;;4979225;28;20191;-87
2021/11/02 03:00:26;;;;;;;13.32;7.90;;;6.40;99.90;;;;;;4979334;28;20133;-86
2021/11/02 03:02:53;;;;;;;12.95;6.65;;;6.40;99.90;;;;;;5009466;28;20037;-86
2021/11/02 03:05:23;;;;;;;18.92;8.70;;;6.40;99.90;;;;;;4974054;28;20120;-85
2021/11/02 03:07:49;;;;;;;12.93;8.13;;;6.30;99.90;;;;;;4990458;28;20249;-87
2021/11/02 03:10:15;;;;;;;17.95;8.40;;;6.30;99.90;;;;;;4960615;28;20045;-85
2021/11/02 03:12:47;;;;;;;14.30;9.00;;;6.30;99.90;;;;;;4964997;28;20406;-86
2021/11/02 03:18:06;;;;;;;26.23;9.20;;;6.30;99.90;;;;;;4996137;28;20069;-87
2021/11/02 03:43:29;;;;;;;21.52;10.25;;;6.30;99.90;;;;;;4993948;28;20368;-87
2021/11/02 03:49:27;;;;;;;22.38;12.10;;;6.30;99.90;;;;;;4982984;28;20507;-85
2021/11/02 03:54:46;;;;;;;22.27;11.82;;;6.30;99.90;;;;;;4954402;28;20170;-86
2021/11/02 03:57:21;;;;;;;21.65;12.30;;;6.30;99.90;;;;;;4968621;28;20056;-86
2021/11/02 04:24:58;;;;;;;22.45;12.90;;;6.20;99.90;;;;;;4996634;28;20500;-86
2021/11/02 04:27:48;;;;;;;26.63;12.13;;;6.20;99.90;;;;;;4992111;28;20053;-86
2021/11/02 05:49:58;;;;;;;29.15;13.68;;;5.60;99.90;;;;;;4993846;28;20333;-86
2021/11/02 05:53:23;;;;;;;30.25;14.70;;;5.50;99.90;;;;;;4975006;28;20151;-86
2021/11/02 06:01:26;;;;;;;28.02;14.90;;;5.50;99.90;;;;;;5003654;28;20052;-86
2021/11/02 06:03:51;;;;;;;25.13;14.95;;;5.50;99.90;;;;;;4982543;28;20049;-87
2021/11/02 06:06:48;;;;;;;32.75;15.90;;;5.50;99.90;;;;;;5005993;28;20049;-87
2021/11/02 06:09:30;;;;;;;27.38;14.90;;;5.50;99.90;;;;;;4999039;28;20037;-91
2021/11/02 06:29:17;;;;;;;36.92;18.80;;;5.70;99.90;;;;;;5033122;28;20508;-89
2021/11/02 06:31:54;;;;;;;37.92;19.75;;;5.80;99.90;;;;;;4975442;28;20045;-87
2021/11/02 06:34:38;;;;;;;43.75;20.65;;;5.90;99.90;;;;;;4988896;28;20048;-87
2021/11/02 07:15:53;;;;;;;32.05;16.92;;;6.40;99.90;;;;;;5013895;28;20515;-87
2021/11/02 07:18:27;;;;;;;31.20;17.25;;;6.40;99.90;;;;;;4984856;28;20037;-88
2021/11/02 07:21:04;;;;;;;29.23;17.63;;;6.40;99.90;;;;;;4971017;28;20041;-88
2021/11/02 07:23:42;;;;;;;30.83;17.60;;;6.40;99.90;;;;;;4983383;28;20029;-88
2021/11/02 07:29:19;;;;;;;24.90;16.05;;;6.40;99.90;;;;;;5005813;28;20060;-87
2021/11/02 08:45:11;;;;;;;20.42;13.32;;;7.10;99.90;;;;;;5001442;28;20056;-88
2021/11/02 08:47:41;;;;;;;18.23;12.02;;;7.20;99.90;;;;;;4982349;28;20787;-88
2021/11/02 08:50:10;;;;;;;18.98;12.75;;;7.30;99.90;;;;;;4970098;28;20303;-86
2021/11/02 08:52:36;;;;;;;17.13;11.05;;;7.40;99.90;;;;;;5013638;28;20091;-87
2021/11/02 08:55:05;;;;;;;21.98;11.63;;;7.40;99.90;;;;;;4968334;28;20041;-88
2021/11/02 08:57:32;;;;;;;16.00;10.93;;;7.50;99.90;;;;;;4984339;28;20041;-87
2021/11/02 08:59:58;;;;;;;19.65;11.25;;;7.60;99.90;;;;;;5003328;28;20033;-89
2021/11/02 09:02:33;;;;;;;18.23;11.93;;;7.60;99.90;;;;;;4986831;28;20567;-88
2021/11/02 09:05:11;;;;;;;21.13;11.77;;;7.70;99.90;;;;;;4992763;28;20037;-87
2021/11/02 09:07:39;;;;;;;20.23;12.77;;;7.70;99.90;;;;;;4983013;28;20041;-88
2021/11/02 09:10:15;;;;;;;19.17;12.00;;;7.80;99.90;;;;;;4981137;28;20146;-87
2021/11/02 09:12:49;;;;;;;19.30;13.38;;;7.80;99.90;;;;;;5018368;28;20056;-88
2021/11/02 09:15:16;;;;;;;19.65;13.18;;;7.80;99.90;;;;;;5006747;28;20661;-88
2021/11/02 09:17:47;;;;;;;17.00;11.95;;;7.80;99.90;;;;;;4997520;28;20120;-86
2021/11/02 09:20:15;;;;;;;23.60;13.77;;;7.90;99.90;;;;;;5007968;28;20064;-87
2021/11/02 09:22:42;;;;;;;18.60;13.38;;;7.90;99.90;;;;;;4985353;28;20799;-88
2021/11/02 09:25:10;;;;;;;19.58;12.95;;;8.00;99.90;;;;;;4981641;28;20628;-88
2021/11/02 09:27:39;;;;;;;18.80;13.32;;;8.00;99.90;;;;;;4982280;28;20468;-87
2021/11/02 09:30:07;;;;;;;28.10;14.30;;;8.00;99.90;;;;;;4985927;28;20073;-88
2021/11/02 09:32:35;;;;;;;19.73;12.48;;;8.00;99.90;;;;;;4998550;28;20048;-87
2021/11/02 09:35:01;;;;;;;20.02;13.38;;;8.10;99.90;;;;;;4995209;28;20045;-87
2021/11/02 09:37:35;;;;;;;21.20;13.80;;;8.10;99.90;;;;;;4989756;28;20029;-88
2021/11/02 09:40:16;;;;;;;18.90;12.15;;;8.20;99.90;;;;;;4986754;28;20131;-88
2021/11/02 09:43:12;;;;;;;21.25;13.77;;;8.20;99.90;;;;;;5003512;28;20319;-87
2021/11/02 09:46:09;;;;;;;21.73;12.57;;;8.30;99.90;;;;;;4986058;28;20415;-87
2021/11/02 09:49:12;;;;;;;15.43;11.25;;;8.30;99.90;;;;;;4977752;28;20049;-87
2021/11/02 09:51:57;;;;;;;;;;;8.40;99.90;;;;;;4998364;28;20496;-88
2021/11/02 09:54:59;;;;;;;21.92;13.38;;;8.40;99.90;;;;;;4982856;28;19932;-88
2021/11/02 09:57:56;;;;;;;23.00;13.50;;;8.40;99.90;;;;;;5003726;28;20037;-88
2021/11/02 10:00:49;;;;;;;19.77;13.13;;;8.40;99.90;;;;;;5004224;28;20050;-87
2021/11/02 10:03:18;;;;;;;18.73;13.63;;;8.40;99.90;;;;;;5011941;28;20098;-88
2021/11/02 10:06:14;;;;;;;19.52;13.55;;;8.50;99.90;;;;;;4982082;28;20333;-87
2021/11/02 10:08:50;;;;;;;20.83;14.48;;;8.50;99.90;;;;;;5002574;28;20725;-87
2021/11/02 10:11:37;;;;;;;22.52;14.52;;;8.50;99.90;;;;;;4995797;28;20037;-87
2021/11/02 10:14:44;;;;;;;23.50;14.05;;;8.50;99.90;;;;;;4997958;28;20033;-86
2021/11/02 10:17:25;;;;;;;23.63;15.48;;;8.50;99.90;;;;;;4919359;28;20097;-87
2021/11/02 10:20:08;;;;;;;22.05;14.30;;;8.50;99.90;;;;;;4974447;28;20160;-87
2021/11/02 10:22:56;;;;;;;20.50;14.50;;;8.50;99.90;;;;;;4977496;28;20075;-88
2021/11/02 10:25:59;;;;;;;21.65;15.25;;;8.60;99.90;;;;;;4983951;28;20045;-86
2021/11/02 10:28:51;;;;;;;22.73;15.57;;;8.60;99.90;;;;;;5011269;28;20452;-88
2021/11/02 10:31:30;;;;;;;18.98;13.50;;;8.60;99.90;;;;;;4991632;28;20083;-87
2021/11/02 10:34:28;;;;;;;23.23;16.13;;;8.70;99.90;;;;;;4991601;28;20497;-86
2021/11/02 10:37:08;;;;;;;26.48;15.32;;;8.80;99.90;;;;;;5016645;28;20100;-87
2021/11/02 10:40:01;;;;;;;25.50;15.63;;;8.80;99.90;;;;;;5000607;28;20052;-87
2021/11/02 10:42:29;;;;;;;17.42;13.50;;;8.80;99.90;;;;;;4990355;28;20225;-87
2021/11/02 10:45:00;;;;;;;22.23;14.03;;;8.80;99.90;;;;;;5013644;28;20354;-86
2021/11/02 10:47:57;;;;;;;20.83;14.63;;;8.80;99.90;;;;;;5001540;28;20369;-87
2021/11/02 10:50:30;;;;;;;20.67;13.27;;;8.90;99.90;;;;;;5002470;28;20072;-87
2021/11/02 10:52:58;;;;;;;18.08;12.73;;;8.90;99.90;;;;;;5015470;28;20075;-87
2021/11/02 10:55:32;;;;;;;18.98;13.38;;;8.90;99.90;;;;;;5000846;28;20272;-87
2021/11/02 10:58:31;;;;;;;19.35;14.52;;;9.00;99.90;;;;;;5018588;28;20557;-87
2021/11/02 11:01:00;;;;;;;18.92;12.30;;;9.00;99.90;;;;;;5018816;28;20751;-87
2021/11/02 11:03:31;;;;;;;20.27;12.52;;;9.10;99.90;;;;;;5017011;28;20063;-87
2021/11/02 11:06:02;;;;;;;20.42;11.85;;;9.10;99.90;;;;;;4985230;28;20065;-87
2021/11/02 11:08:32;;;;;;;24.20;11.88;;;9.10;99.90;;;;;;5035853;28;20874;-89
2021/11/02 11:11:20;;;;;;;15.88;11.70;;;9.10;99.90;;;;;;5019634;28;20467;-88
2021/11/02 11:13:49;;;;;;;19.08;12.63;;;9.10;99.90;;;;;;5001176;28;20045;-88
2021/11/02 11:16:20;;;;;;;17.75;11.45;;;9.10;99.90;;;;;;5003998;28;20037;-88
2021/11/02 11:19:07;;;;;;;16.17;11.83;;;9.20;99.90;;;;;;5003001;28;20549;-87
2021/11/02 11:21:41;;;;;;;14.55;10.27;;;9.20;99.90;;;;;;4998014;28;20038;-88
2021/11/02 11:24:24;;;;;;;15.40;11.13;;;9.30;99.90;;;;;;5023121;28;20527;-87
2021/11/02 11:26:52;;;;;;;16.48;11.32;;;9.30;99.90;;;;;;5029361;28;20041;-88
2021/11/02 11:29:26;;;;;;;15.30;10.40;;;9.30;99.90;;;;;;5004157;28;20060;-87
2021/11/02 11:31:54;;;;;;;15.40;11.48;;;9.40;99.90;;;;;;5018391;28;20033;-87
2021/11/02 11:34:50;;;;;;;15.38;10.52;;;9.40;99.90;;;;;;5005011;28;20555;-88
2021/11/02 11:37:21;;;;;;;19.17;11.10;;;9.50;99.90;;;;;;5001807;28;20447;-88
2021/11/02 11:39:51;;;;;;;19.45;10.93;;;9.50;99.90;;;;;;5020061;28;20040;-88
2021/11/02 11:42:18;;;;;;;13.90;10.25;;;9.50;99.90;;;;;;5004323;28;20037;-88
2021/11/02 11:44:52;;;;;;;15.18;9.68;;;9.50;99.90;;;;;;5001070;28;20048;-88
2021/11/02 11:47:23;;;;;;;17.83;10.40;;;9.50;99.90;;;;;;5017934;28;20033;-88
2021/11/02 11:49:49;;;;;;;15.43;10.80;;;9.50;99.90;;;;;;5001993;28;20037;-87
2021/11/02 11:52:29;;;;;;;15.38;9.85;;;9.50;99.90;;;;;;4989496;28;20084;-88
2021/11/02 11:54:57;;;;;;;11.98;9.38;;;9.50;99.90;;;;;;5011385;28;20415;-87
2021/11/02 11:57:31;;;;;;;13.77;8.63;;;9.50;99.90;;;;;;4992151;28;20029;-89
2021/11/02 12:00:06;;;;;;;11.25;8.50;;;9.50;99.90;;;;;;5042057;28;20045;-87
2021/11/02 12:02:40;;;;;;;12.98;9.02;;;9.60;99.90;;;;;;5020285;28;20048;-87
2021/11/02 12:05:17;;;;;;;16.67;8.52;;;9.60;99.90;;;;;;5020934;28;20120;-88
2021/11/02 12:08:08;;;;;;;14.95;8.40;;;9.60;99.90;;;;;;5030767;28;20071;-87
2021/11/02 12:10:37;;;;;;;13.40;7.93;;;9.60;99.90;;;;;;5020480;28;20029;-87
2021/11/02 12:13:08;;;;;;;14.82;7.97;;;9.60;99.90;;;;;;5018312;28;20573;-88
2021/11/02 12:15:40;;;;;;;9.63;8.10;;;9.60;99.90;;;;;;5015951;28;20556;-88
2021/11/02 12:18:07;;;;;;;15.20;7.90;;;9.70;99.90;;;;;;5013604;28;20056;-87
2021/11/02 12:20:36;;;;;;;15.55;8.65;;;9.60;99.90;;;;;;4992893;28;20044;-87
2021/11/02 12:23:14;;;;;;;13.57;7.13;;;9.70;99.90;;;;;;5037998;28;20253;-87
2021/11/02 12:25:48;;;;;;;13.05;6.68;;;9.70;99.90;;;;;;5019314;28;20067;-87
2021/11/02 12:28:34;;;;;;;12.63;7.85;;;9.80;99.90;;;;;;5004250;28;20041;-87
2021/11/02 12:31:03;;;;;;;15.90;7.78;;;9.80;99.90;;;;;;5005049;28;20037;-87
2021/11/02 12:33:30;;;;;;;9.48;6.80;;;9.70;99.90;;;;;;5003511;28;20389;-88
2021/11/02 12:35:58;;;;;;;13.70;7.63;;;9.80;99.90;;;;;;5011098;28;20065;-87
2021/11/02 12:38:42;;;;;;;11.35;6.97;;;9.80;99.90;;;;;;5017949;28;20121;-87
2021/11/02 12:41:22;;;;;;;11.98;6.25;;;9.80;99.90;;;;;;5021162;28;20574;-87
2021/11/02 12:44:12;;;;;;;9.05;6.30;;;9.80;99.90;;;;;;4996901;28;20088;-87
2021/11/02 12:46:41;;;;;;;10.85;6.55;;;9.90;99.90;;;;;;4998212;28;20095;-88
2021/11/02 12:49:09;;;;;;;11.43;6.30;;;9.90;99.90;;;;;;5017135;28;20061;-86
2021/11/02 12:51:39;;;;;;;11.60;6.38;;;9.90;99.90;;;;;;5018018;28;20334;-87
2021/11/02 12:54:09;;;;;;;16.42;6.43;;;9.90;99.90;;;;;;5002296;28;20091;-88
2021/11/02 12:56:37;;;;;;;10.93;5.90;;;9.90;99.90;;;;;;4998663;28;20703;-88
2021/11/02 12:59:22;;;;;;;10.95;6.60;;;9.90;99.90;;;;;;4993623;28;20037;-88
2021/11/02 13:01:50;;;;;;;10.30;6.70;;;9.90;99.90;;;;;;5007566;28;20084;-88
2021/11/02 13:04:17;;;;;;;12.73;7.03;;;9.90;99.90;;;;;;4995891;28;20551;-87
2021/11/02 13:06:46;;;;;;;9.73;5.75;;;10.00;99.90;;;;;;5003351;28;20041;-87
2021/11/02 13:09:18;;;;;;;8.23;5.30;;;10.00;99.90;;;;;;5014036;28;20502;-87
2021/11/02 13:11:47;;;;;;;10.35;5.38;;;10.00;99.90;;;;;;5018055;28;20037;-87
2021/11/02 13:14:15;;;;;;;7.03;5.25;;;10.10;99.90;;;;;;5001413;28;20354;-87
2021/11/02 13:16:58;;;;;;;9.43;5.80;;;10.00;99.90;;;;;;4966048;28;20045;-88
2021/11/02 13:19:39;;;;;;;11.93;6.13;;;10.00;99.90;;;;;;5012271;28;20385;-88
2021/11/02 13:22:14;;;;;;;8.75;5.47;;;10.00;99.90;;;;;;5018875;28;20037;-88
2021/11/02 13:25:01;;;;;;;9.27;6.53;;;10.00;99.90;;;;;;5004127;28;20561;-87
2021/11/02 13:27:45;;;;;;;12.05;6.07;;;10.00;99.90;;;;;;5033222;28;20107;-88
2021/11/02 13:30:31;;;;;;;6.85;5.78;;;10.00;99.90;;;;;;5015870;28;20143;-88
2021/11/02 13:33:13;;;;;;;10.80;5.70;;;10.00;99.90;;;;;;5002208;28;20586;-89
2021/11/02 13:35:51;;;;;;;7.35;5.10;;;10.10;99.90;;;;;;5002888;28;20560;-87
2021/11/02 13:38:28;;;;;;;6.70;4.72;;;10.10;99.90;;;;;;5019374;28;20128;-88
2021/11/02 13:40:56;;;;;;;5.03;3.97;;;10.10;99.90;;;;;;5017673;28;20033;-89
2021/11/02 13:43:34;;;;;;;9.02;4.50;;;10.10;99.90;;;;;;5018242;28;20399;-87
2021/11/02 13:46:02;;;;;;;15.63;4.60;;;10.10;99.90;;;;;;5002411;28;20037;-88
2021/11/02 13:48:32;;;;;;;7.97;4.28;;;10.10;99.90;;;;;;5015358;28;20075;-89
2021/11/02 13:50:59;;;;;;;8.57;4.53;;;10.00;99.90;;;;;;5003068;28;20077;-88
2021/11/02 13:53:31;;;;;;;12.93;5.10;;;10.00;99.90;;;;;;4999547;28;20069;-88
2021/11/02 13:55:58;;;;;;;7.97;4.82;;;10.00;99.90;;;;;;4976998;28;20033;-88
2021/11/02 13:58:24;;;;;;;10.50;5.00;;;10.00;99.90;;;;;;5000941;28;20260;-87
2021/11/02 14:00:49;;;;;;;7.00;4.68;;;10.00;99.90;;;;;;4997130;28;20041;-87
2021/11/02 14:03:36;;;;;;;8.63;3.90;;;9.90;99.90;;;;;;4992021;28;20563;-87
2021/11/02 14:06:03;;;;;;;5.45;3.90;;;9.90;99.90;;;;;;5013824;28;20029;-88
2021/11/02 14:08:29;;;;;;;5.10;3.60;;;9.90;99.90;;;;;;4999434;28;20053;-88
2021/11/02 14:11:01;;;;;;;5.00;3.83;;;9.90;99.90;;;;;;4996317;28;20037;-89
2021/11/02 14:13:49;;;;;;;7.10;4.50;;;9.90;99.90;;;;;;4992499;28;20103;-87
2021/11/02 14:16:34;;;;;;;5.85;4.18;;;10.00;99.90;;;;;;4998241;28;20167;-88
2021/11/02 14:19:00;;;;;;;6.53;4.50;;;10.10;99.90;;;;;;5006662;28;20128;-88
2021/11/02 14:22:14;;;;;;;7.20;3.55;;;10.10;99.90;;;;;;5009473;28;20041;-87
2021/11/02 14:24:48;;;;;;;6.18;4.05;;;10.20;99.90;;;;;;4973722;28;20108;-88
2021/11/02 14:27:21;;;;;;;7.32;3.53;;;10.20;99.90;;;;;;5021737;28;20046;-87
2021/11/02 14:29:57;;;;;;;3.53;2.88;;;10.20;99.90;;;;;;5004235;28;20547;-87
2021/11/02 14:32:38;;;;;;;5.32;2.72;;;10.20;99.90;;;;;;4992694;28;20044;-87
2021/11/02 14:35:12;;;;;;;5.10;2.95;;;10.20;99.90;;;;;;5027338;28;20038;-88
2021/11/02 14:37:48;;;;;;;3.88;2.45;;;10.20;99.90;;;;;;5013061;28;20060;-88
2021/11/02 14:40:34;;;;;;;3.60;2.10;;;10.20;99.90;;;;;;5010832;28;20068;-88
2021/11/02 14:43:22;;;;;;;3.97;2.58;;;10.20;99.90;;;;;;5013205;28;20095;-86
2021/11/02 14:46:17;;;;;;;5.13;2.25;;;10.10;99.90;;;;;;5011072;28;20037;-88
2021/11/02 14:48:50;;;;;;;4.90;2.20;;;10.10;99.90;;;;;;5014148;28;20045;-87
2021/11/02 14:51:25;;;;;;;5.25;2.33;;;10.00;99.90;;;;;;5010086;28;20041;-86
2021/11/02 14:53:56;;;;;;;3.15;2.15;;;10.00;99.90;;;;;;5002006;28;20045;-87
2021/11/02 14:56:28;;;;;;;5.40;2.88;;;10.00;99.90;;;;;;5006140;28;20033;-87
2021/11/02 14:58:55;;;;;;;5.00;2.70;;;10.00;99.90;;;;;;5000498;28;20048;-88
2021/11/02 15:01:36;;;;;;;5.00;3.00;;;10.00;99.90;;;;;;5025488;28;20475;-87
2021/11/02 15:04:10;;;;;;;4.40;2.95;;;10.00;99.90;;;;;;5008417;28;20126;-88
2021/11/02 15:06:52;;;;;;;7.32;3.03;;;10.00;99.90;;;;;;5026545;28;20416;-87
2021/11/02 15:09:19;;;;;;;;;;;9.90;99.90;;;;;;5024240;28;20438;-87
2021/11/02 15:11:47;;;;;;;11.00;3.53;;;9.90;99.90;;;;;;5013418;28;19924;-88
2021/11/02 15:14:16;;;;;;;5.10;3.25;;;9.90;99.90;;;;;;5019313;28;20261;-87
2021/11/02 15:16:53;;;;;;;6.57;3.60;;;9.80;99.90;;;;;;5023741;28;20034;-87
2021/11/02 15:19:22;;;;;;;5.93;3.60;;;9.80;99.90;;;;;;5030581;28;20037;-88
2021/11/02 15:21:59;;;;;;;5.57;3.22;;;9.80;99.90;;;;;;5018707;28;20048;-87
2021/11/02 15:24:31;;;;;;;9.00;4.38;;;9.70;99.90;;;;;;5026059;28;20059;-87
2021/11/02 15:27:03;;;;;;;7.45;4.50;;;9.80;99.90;;;;;;5026996;28;20091;-87
2021/11/02 15:29:32;;;;;;;6.35;4.70;;;9.70;99.90;;;;;;5023457;28;20037;-88
2021/11/02 15:32:07;;;;;;;10.05;4.97;;;9.70;99.90;;;;;;5000263;28;20029;-87
2021/11/02 15:34:42;;;;;;;10.60;3.70;;;9.70;99.90;;;;;;5024550;28;20085;-86
2021/11/02 15:37:14;;;;;;;6.80;3.40;;;9.70;99.90;;;;;;5013509;28;20446;-87
2021/11/02 15:39:41;;;;;;;9.90;3.58;;;9.70;99.90;;;;;;5023505;28;20034;-87
2021/11/02 15:42:22;;;;;;;9.98;6.30;;;9.60;99.90;;;;;;4996177;28;20059;-86
2021/11/02 15:44:50;;;;;;;7.95;4.10;;;9.60;99.90;;;;;;5014752;28;20030;-87
2021/11/02 15:47:17;;;;;;;7.28;3.78;;;9.60;99.90;;;;;;5007046;28;20045;-87
2021/11/02 15:49:59;;;;;;;6.72;3.83;;;9.60;99.90;;;;;;5044957;28;20122;-87
2021/11/02 15:52:28;;;;;;;5.32;3.58;;;9.60;99.90;;;;;;5011517;28;20386;-88
2021/11/02 15:54:54;;;;;;;7.20;4.32;;;9.50;99.90;;;;;;5028898;28;20037;-87
2021/11/02 15:57:21;;;;;;;5.93;3.33;;;9.50;99.90;;;;;;5005913;28;20037;-87
2021/11/02 16:00:03;;;;;;;5.72;3.50;;;9.50;99.90;;;;;;5001940;28;20554;-87
2021/11/02 16:02:34;;;;;;;7.17;3.47;;;9.50;99.90;;;;;;5000842;28;20331;-88
2021/11/02 16:05:11;;;;;;;5.82;3.58;;;9.50;99.90;;;;;;5003095;28;20137;-87
2021/11/02 16:07:38;;;;;;;8.00;3.38;;;9.40;99.90;;;;;;4998199;28;20048;-86
2021/11/02 16:10:06;;;;;;;7.78;3.70;;;9.40;99.90;;;;;;5001252;28;20092;-86
2021/11/02 16:12:39;;;;;;;6.97;3.63;;;9.40;99.90;;;;;;5003609;28;20536;-86
2021/11/02 16:15:10;;;;;;;9.68;3.65;;;9.40;99.90;;;;;;5001743;28;20056;-85
2021/11/02 16:18:13;;;;;;;8.43;4.40;;;9.40;99.90;;;;;;5007134;28;20048;-86
2021/11/02 16:20:49;;;;;;;6.70;3.53;;;9.30;99.90;;;;;;5023919;28;20090;-86
2021/11/02 16:23:24;;;;;;;9.98;4.07;;;9.20;99.90;;;;;;5007775;28;20077;-85
2021/11/02 16:25:56;;;;;;;9.43;3.67;;;9.20;99.90;;;;;;5007529;28;20049;-86
2021/11/02 16:28:29;;;;;;;11.98;4.90;;;9.20;99.90;;;;;;5021287;28;20516;-85
2021/11/02 16:30:59;;;;;;;10.85;5.18;;;9.20;99.90;;;;;;5021583;28;20475;-86
2021/11/02 16:33:33;;;;;;;16.50;5.05;;;9.10;99.90;;;;;;5004429;28;20381;-86
2021/11/02 16:36:21;;;;;;;10.38;4.18;;;9.10;99.90;;;;;;5021430;28;20033;-85
2021/11/02 16:38:49;;;;;;;19.52;4.78;;;9.00;99.90;;;;;;5024999;28;20926;-85
2021/11/02 16:41:24;;;;;;;14.60;4.60;;;9.00;99.90;;;;;;5027849;28;20107;-85
2021/11/02 16:44:03;;;;;;;7.68;4.35;;;9.00;99.90;;;;;;5010138;28;20047;-86
2021/11/02 16:46:32;;;;;;;17.20;5.50;;;9.00;99.90;;;;;;5021313;28;20091;-85
2021/11/02 16:49:00;;;;;;;9.43;5.38;;;8.90;99.90;;;;;;5004899;28;20033;-85
2021/11/02 16:51:48;;;;;;;6.82;4.55;;;8.90;99.90;;;;;;5023662;28;20041;-85
2021/11/02 16:54:18;;;;;;;9.02;5.95;;;8.90;99.90;;;;;;5021737;28;20737;-85
2021/11/02 16:57:17;;;;;;;17.25;6.40;;;8.90;99.90;;;;;;5016619;28;20038;-86
2021/11/02 16:59:49;;;;;;;13.68;6.32;;;8.80;99.90;;;;;;5022524;28;20052;-85
2021/11/02 17:02:23;;;;;;;13.68;6.55;;;8.80;99.90;;;;;;5021943;28;20033;-85
2021/11/02 17:05:08;;;;;;;15.75;6.50;;;8.70;99.90;;;;;;5016450;28;20124;-86
2021/11/02 17:07:42;;;;;;;17.17;6.45;;;8.70;99.90;;;;;;4997853;28;20127;-85
2021/11/02 17:10:23;;;;;;;9.27;5.00;;;8.70;99.90;;;;;;5004809;28;20353;-86
2021/11/02 17:12:59;;;;;;;12.77;5.72;;;8.70;99.90;;;;;;5021972;28;20033;-85
2021/11/02 17:15:35;;;;;;;15.10;6.13;;;8.60;99.90;;;;;;5000129;28;20126;-85
2021/11/02 17:18:04;;;;;;;25.98;5.43;;;8.60;99.90;;;;;;4997645;28;20041;-85
2021/11/02 17:20:30;;;;;;;17.38;5.20;;;8.60;99.90;;;;;;5026406;28;20037;-85
2021/11/02 17:22:56;;;;;;;18.83;6.25;;;8.60;99.90;;;;;;5018609;28;20500;-85
2021/11/02 17:25:23;;;;;;;11.32;5.47;;;8.60;99.90;;;;;;4983154;28;20040;-86
2021/11/02 17:27:51;;;;;;;28.00;7.20;;;8.60;99.90;;;;;;4996473;28;20326;-85
2021/11/02 17:30:24;;;;;;;7.95;6.32;;;8.50;99.90;;;;;;4989319;28;20563;-86
2021/11/02 17:32:51;;;;;;;20.02;8.20;;;8.60;99.90;;;;;;5000312;28;20090;-84
2021/11/02 17:35:18;;;;;;;15.98;8.52;;;8.50;99.90;;;;;;5004603;28;20041;-86
2021/11/02 17:37:53;;;;;;;20.90;10.20;;;8.60;99.90;;;;;;5023370;28;20037;-85
2021/11/02 17:40:21;;;;;;;24.40;11.63;;;8.50;99.90;;;;;;5004073;28;20035;-85
2021/11/02 17:42:52;;;;;;;22.05;10.88;;;8.60;99.90;;;;;;5006766;28;20045;-85
2021/11/02 17:45:19;;;;;;;21.47;10.37;;;8.60;99.90;;;;;;5047124;28;20613;-86
2021/11/02 17:47:47;;;;;;;21.60;10.60;;;8.60;99.90;;;;;;5006979;28;20036;-85
2021/11/02 17:50:14;;;;;;;19.70;9.70;;;8.60;99.90;;;;;;5039004;28;20038;-86
2021/11/02 17:52:41;;;;;;;18.50;9.02;;;8.60;99.90;;;;;;5024845;28;20196;-85
2021/11/02 17:55:08;;;;;;;16.50;8.65;;;8.60;99.90;;;;;;5011917;28;20511;-86
2021/11/02 17:57:40;;;;;;;18.05;9.40;;;8.50;99.90;;;;;;4990907;28;20077;-85